»·PEaware :: N1JG KEGE-KDEN

N1JG :: KEGE-KDEN

FLIGHT INFORMATION

Flight Status: Arrived
Operator: Privately registered:
United States
More flights under this callsign
Pilot: Josh G. (4619)
Aircraft: AIRBUS A320
(A320)
More flights by this aircraft type
Origin: KEGE Eagle Co Regl
United States
Destination: KDEN Denver Intl
United States
More flights between these airports :: More routes between these airports
Route: GYPSM5 RLG FRNCH KAILE2
File this flight plan on PilotEdge
Remarks:
Altitude:
(Current/Filed)
23,000ft
Speed:
(Current/Filed)
450kts
Departed: 10-Jan-17 10:39 PM
Arrived: 10-Jan-17 11:10 PM
Distance/Time
Traveled:
105nm/0:31
Distance/Time
To Go:
Arrived

Flight Plot

Page will automatically refresh every two minutes.


Map Options




Map Legend


Flown Route
Filed Route
Departure Airport
Arrival Airport
Navaid (VOR, NDB)
Fix

Horizontal Profiles

Position Reports

Time Latitude Longitude Heading Altitude Ground
Speed
10-Jan-17 22:12 39.640668 -106.914853 172 6548ft 0kts
10-Jan-17 22:13 39.640668 -106.914853 172 6548ft 0kts
10-Jan-17 22:14 39.640668 -106.914853 172 6548ft 0kts
10-Jan-17 22:15 39.640668 -106.914853 172 6548ft 0kts
10-Jan-17 22:16 39.640668 -106.914853 172 6548ft 0kts
10-Jan-17 22:17 39.640668 -106.914853 172 6548ft 0kts
10-Jan-17 22:18 39.640668 -106.914853 172 6548ft 0kts
10-Jan-17 22:19 39.640668 -106.914853 172 6548ft 0kts
10-Jan-17 22:20 39.640668 -106.914853 172 6548ft 0kts
10-Jan-17 22:21 39.640668 -106.914853 172 6548ft 0kts
10-Jan-17 22:22 39.640668 -106.914853 172 6548ft 0kts
10-Jan-17 22:23 39.640668 -106.914853 172 6548ft 0kts
10-Jan-17 22:24 39.640668 -106.914853 172 6548ft 0kts
10-Jan-17 22:25 39.640785 -106.914902 146 6548ft 0kts
10-Jan-17 22:26 39.640876 -106.915145 90 6549ft 0kts
10-Jan-17 22:27 39.640876 -106.915145 90 6549ft 0kts
10-Jan-17 22:28 39.640938 -106.914933 57 6549ft 0kts
10-Jan-17 22:29 39.642176 -106.912455 82 6549ft 20kts
10-Jan-17 22:30 39.643076 -106.904435 79 6549ft 0kts
10-Jan-17 22:31 39.643076 -106.904434 79 6549ft 0kts
10-Jan-17 22:32 39.643076 -106.904434 79 6549ft 0kts
10-Jan-17 22:33 39.643076 -106.904434 79 6549ft 0kts
10-Jan-17 22:34 39.643076 -106.904434 79 6549ft 0kts
10-Jan-17 22:35 39.643076 -106.904434 79 6549ft 0kts
10-Jan-17 22:36 39.643166 -106.903939 62 6548ft 12kts
10-Jan-17 22:37 39.643402 -106.903744 349 6549ft 0kts
10-Jan-17 22:38 39.643402 -106.903744 349 6549ft 0kts
10-Jan-17 22:39 39.642837 -106.915226 262 6549ft 123kts
10-Jan-17 22:40 39.635652 -106.970506 254 8495ft 166kts
10-Jan-17 22:41 39.640360 -107.021762 328 9585ft 204kts
10-Jan-17 22:42 39.699205 -107.058138 334 11028ft 263kts
10-Jan-17 22:43 39.774824 -107.052831 47 12312ft 338kts
10-Jan-17 22:44 39.821616 -106.934924 64 13724ft 402kts
10-Jan-17 22:45 39.869675 -106.804562 64 16256ft 423kts
10-Jan-17 22:46 39.919754 -106.668663 62 17373ft 470kts
10-Jan-17 22:47 39.976420 -106.513981 61 19445ft 498kts
10-Jan-17 22:48 40.063499 -106.382048 30 21234ft 490kts
10-Jan-17 22:49 40.170973 -106.271964 28 22848ft 499kts
10-Jan-17 22:50 40.280049 -106.160901 28 22789ft 501kts
10-Jan-17 22:51 40.388723 -106.048884 33 22787ft 506kts
10-Jan-17 22:52 40.425282 -105.879557 105 22353ft 482kts
10-Jan-17 22:53 40.401360 -105.715971 105 21323ft 457kts
10-Jan-17 22:54 40.375812 -105.555947 105 20346ft 450kts
10-Jan-17 22:55 40.353055 -105.408720 103 18396ft 439kts
10-Jan-17 22:56 40.334489 -105.255582 87 16759ft 416kts
10-Jan-17 22:57 40.366252 -105.113813 69 14800ft 402kts
10-Jan-17 22:58 40.376856 -104.974212 98 13013ft 398kts
10-Jan-17 22:59 40.364163 -104.832080 99 12963ft 357kts
10-Jan-17 23:00 40.351531 -104.717518 99 13005ft 306kts
10-Jan-17 23:01 40.295816 -104.665425 188 12977ft 255kts
10-Jan-17 23:02 40.229838 -104.650371 177 12973ft 234kts
10-Jan-17 23:03 40.172642 -104.629129 191 12382ft 203kts
10-Jan-17 23:04 40.118242 -104.636018 201 12111ft 204kts
10-Jan-17 23:05 40.066863 -104.653797 187 11497ft 180kts
10-Jan-17 23:06 40.017968 -104.659030 184 9973ft 179kts
10-Jan-17 23:07 39.968617 -104.659207 178 8191ft 177kts
10-Jan-17 23:08 39.923727 -104.659440 181 6662ft 149kts
10-Jan-17 23:09 39.884444 -104.659845 179 5923ft 139kts
10-Jan-17 23:10 39.849491 -104.660292 179 5439ft 40kts
10-Jan-17 23:11 39.849054 -104.661562 330 5440ft 5kts
10-Jan-17 23:12 39.852892 -104.663959 269 5439ft 15kts
10-Jan-17 23:13 39.855428 -104.668086 321 5440ft 16kts
10-Jan-17 23:14 39.857948 -104.669639 5 5440ft 5kts
10-Jan-17 23:15 39.858110 -104.669623 4 5440ft 0kts
10-Jan-17 23:16 39.858110 -104.669623 4 5440ft 0kts
10-Jan-17 23:17 39.858110 -104.669623 4 5440ft 0kts
10-Jan-17 23:18 39.858110 -104.669623 4 5440ft 0kts
10-Jan-17 23:19 39.858110 -104.669623 4 5440ft 0kts
10-Jan-17 23:20 39.858110 -104.669623 4 5440ft 0kts
10-Jan-17 23:21 39.858110 -104.669623 4 5440ft 0kts
10-Jan-17 23:22 39.858110 -104.669623 4 5440ft 0kts
10-Jan-17 23:23 39.858110 -104.669623 4 5440ft 0kts
10-Jan-17 23:24 39.858110 -104.669623 4 5440ft 0kts

Navigation Log

Ident Type
1. KEGE Airport
2. RLG Navaid
3. KDEN Airport